createdAt,value
2019-02-21T16:31:01.907Z,14.13
2019-02-21T16:33:30.349Z,14.12
2019-02-21T16:35:58.717Z,14.35
2019-02-21T16:38:27.138Z,14.55
2019-02-21T16:40:55.507Z,14.71
2019-02-21T16:43:23.979Z,14.83
2019-02-21T16:45:53.864Z,15.00
2019-02-21T16:48:24.188Z,15.11
2019-02-21T16:50:52.870Z,15.15
2019-02-21T16:53:21.203Z,15.12
2019-02-21T16:55:49.774Z,15.11
2019-02-21T16:58:18.072Z,15.10
2019-02-21T17:00:53.305Z,14.99
2019-02-21T17:03:16.927Z,14.87
2019-02-21T17:05:45.496Z,14.90
2019-02-21T17:08:13.887Z,14.86
2019-02-21T17:10:42.576Z,14.79
2019-02-21T17:13:11.051Z,14.76
2019-02-21T17:15:39.489Z,14.76
2019-02-21T17:18:07.796Z,14.30
2019-02-21T17:20:36.178Z,14.31
2019-02-21T17:23:04.640Z,14.31
2019-02-21T17:25:33.045Z,14.13
2019-02-21T17:28:01.456Z,14.11
2019-02-21T17:30:30.139Z,13.83
2019-02-21T17:32:58.467Z,13.66
2019-02-21T17:35:27.033Z,13.78
2019-02-21T17:37:55.404Z,13.62
2019-02-21T17:40:25.081Z,13.58
2019-02-21T17:42:53.700Z,13.47
2019-02-21T17:45:22.827Z,13.55
2019-02-21T17:47:51.358Z,13.20
2019-02-21T17:50:20.345Z,13.06
2019-02-21T17:52:48.790Z,12.79
2019-02-21T17:55:17.519Z,12.67
2019-02-21T17:57:46.091Z,13.01
2019-02-21T18:00:32.810Z,12.59
2019-02-21T18:03:01.304Z,12.81
2019-02-21T18:05:30.002Z,12.67
2019-02-21T18:07:58.427Z,12.73
2019-02-21T18:10:26.862Z,12.73
2019-02-21T18:12:55.409Z,12.65
2019-02-21T18:15:23.808Z,12.63
2019-02-21T18:17:52.465Z,12.44
2019-02-21T18:20:21.205Z,12.53
2019-02-21T18:22:49.826Z,12.69
2019-02-21T18:25:33.642Z,12.58
2019-02-21T18:28:02.336Z,12.57
2019-02-21T18:30:30.884Z,12.53
2019-02-21T18:32:59.297Z,12.49
2019-02-21T18:35:28.472Z,12.46
2019-02-21T18:37:56.984Z,12.47
2019-02-21T18:40:26.563Z,12.45
2019-02-21T18:42:55.116Z,12.63
2019-02-21T18:45:23.542Z,12.39
2019-02-21T18:47:51.997Z,12.03
2019-02-21T18:50:20.495Z,12.16
2019-02-21T18:52:48.880Z,12.09
2019-02-21T18:55:17.379Z,12.19
2019-02-21T18:57:45.944Z,12.38
2019-02-21T19:00:25.703Z,12.48
2019-02-21T19:02:54.443Z,12.63
2019-02-21T19:05:22.910Z,12.40
2019-02-21T19:08:02.134Z,12.24
2019-02-21T19:10:22.198Z,11.99
2019-02-21T19:12:50.578Z,11.96
2019-02-21T19:15:19.879Z,12.09
2019-02-21T19:17:48.440Z,11.99
2019-02-21T19:20:18.284Z,11.77
2019-02-21T19:22:46.867Z,11.97
2019-02-21T19:25:15.470Z,11.78
2019-02-21T19:27:44.053Z,11.94
2019-02-21T19:30:18.318Z,11.65
2019-02-21T19:32:46.797Z,11.73
2019-02-21T19:35:16.020Z,11.73
2019-02-21T19:37:44.521Z,11.87
2019-02-21T19:40:13.134Z,11.78
2019-02-21T19:42:41.614Z,11.65
2019-02-21T19:45:10.292Z,11.72
2019-02-21T19:47:38.750Z,12.05
2019-02-21T19:50:08.885Z,12.26
2019-02-21T19:52:37.521Z,12.25
2019-02-21T19:55:08.018Z,12.21
2019-02-21T19:57:36.510Z,12.12
2019-02-21T20:00:08.125Z,12.03
2019-02-21T20:02:36.547Z,12.06
2019-02-21T20:05:06.655Z,11.95
2019-02-21T20:07:35.307Z,11.90
2019-02-21T20:10:04.820Z,12.08
2019-02-21T20:12:33.065Z,12.27
2019-02-21T20:15:01.425Z,12.31
2019-02-21T20:17:29.883Z,12.27
2019-02-21T20:19:58.390Z,12.41
2019-02-21T20:22:26.830Z,12.43
2019-02-21T20:24:55.157Z,12.37
2019-02-21T20:27:23.583Z,12.31
2019-02-21T20:29:51.966Z,12.35
2019-02-21T20:32:20.361Z,12.30
2019-02-21T20:34:48.804Z,12.16
2019-02-21T20:37:17.199Z,12.30
2019-02-21T20:39:45.598Z,12.33
2019-02-21T20:42:14.301Z,12.15
2019-02-21T20:44:42.716Z,12.31
2019-02-21T20:47:11.465Z,12.39
2019-02-21T20:49:40.042Z,12.38
2019-02-21T20:52:08.446Z,12.41
2019-02-21T20:54:36.834Z,12.45
2019-02-21T20:57:05.238Z,12.49
2019-02-21T20:59:33.662Z,12.48
2019-02-21T21:02:02.059Z,12.46
2019-02-21T21:04:30.461Z,12.52
2019-02-21T21:06:58.868Z,12.52
2019-02-21T21:09:27.359Z,12.48
2019-02-21T21:11:55.684Z,12.49
2019-02-21T21:14:24.048Z,12.59
2019-02-21T21:16:52.564Z,12.53
2019-02-21T21:19:21.067Z,12.42
2019-02-21T21:21:49.408Z,12.46
2019-02-21T21:24:17.802Z,12.50
2019-02-21T21:26:46.290Z,12.51
2019-02-21T21:29:14.627Z,12.50
2019-02-21T21:31:42.955Z,12.52
2019-02-21T21:34:11.375Z,12.55
2019-02-21T21:36:39.707Z,12.55
2019-02-21T21:39:08.176Z,12.59
2019-02-21T21:41:36.577Z,12.59
2019-02-21T21:44:04.902Z,12.63
2019-02-21T21:46:33.262Z,12.63
2019-02-21T21:49:01.652Z,12.46
2019-02-21T21:51:30.070Z,12.48
2019-02-21T21:53:58.533Z,12.46
2019-02-21T21:56:26.960Z,12.50
2019-02-21T21:58:55.276Z,12.45
2019-02-21T22:01:23.669Z,12.46
2019-02-21T22:03:52.252Z,12.40
2019-02-21T22:06:20.723Z,12.37
2019-02-21T22:08:49.185Z,12.22
2019-02-21T22:11:17.600Z,12.27
2019-02-21T22:13:46.057Z,11.96
2019-02-21T22:16:14.392Z,12.04
2019-02-21T22:18:42.728Z,12.09
2019-02-21T22:21:11.114Z,12.20
2019-02-21T22:23:39.440Z,12.27
2019-02-21T22:26:07.776Z,12.19
2019-02-21T22:28:36.138Z,12.23
2019-02-21T22:31:04.517Z,12.26
2019-02-21T22:33:32.848Z,12.28
2019-02-21T22:36:01.210Z,12.22
2019-02-21T22:38:29.629Z,12.14
2019-02-21T22:40:57.941Z,12.28
2019-02-21T22:43:26.614Z,12.34
2019-02-21T22:45:55.015Z,12.42
2019-02-21T22:48:23.620Z,12.36
2019-02-21T22:50:53.391Z,12.34
2019-02-21T22:53:21.792Z,12.40
2019-02-21T22:55:50.158Z,12.43
2019-02-21T22:58:18.563Z,12.47
2019-02-21T23:00:54.831Z,12.43
2019-02-21T23:03:25.975Z,12.33
2019-02-21T23:06:30.836Z,12.41
2019-02-21T23:08:59.197Z,12.30
2019-02-21T23:11:27.808Z,12.36
2019-02-21T23:13:56.692Z,12.38
2019-02-21T23:16:25.147Z,12.38
2019-02-21T23:18:53.603Z,12.33
2019-02-21T23:21:21.932Z,12.38
2019-02-21T23:23:50.335Z,12.40
2019-02-21T23:26:18.774Z,12.36
2019-02-21T23:28:47.176Z,12.40
2019-02-21T23:31:15.614Z,12.39
2019-02-21T23:33:51.192Z,12.48
2019-02-21T23:36:19.657Z,12.36
2019-02-21T23:38:47.967Z,12.36
2019-02-21T23:41:16.404Z,12.33
2019-02-21T23:43:47.150Z,12.32
2019-02-21T23:46:14.831Z,12.26
2019-02-21T23:48:43.132Z,12.35
2019-02-21T23:51:11.476Z,12.06
2019-02-21T23:53:39.878Z,12.37
2019-02-21T23:56:08.276Z,12.18
2019-02-21T23:58:36.725Z,12.33
